Jackson (JAN/KJAN)

Map

Destinations

Information

Location
Jackson, Mississippi
Local Time
22:55 / 10:55 pm
GMT Time
03:55 / 3:55 am
Gates
Unassigned
No FAA reported delays
METAR KJAN 170254Z 15003KT 10SM CLR 24/23 A3004 RMK AO2 SLP169 60000 T02390228 55002
TAF KJAN 162339Z 1700/1724 00000KT P6SM -RA OVC100 FM170100 18004KT P6SM BKN150 FM171130 21005KT P6SM BKN015 FM171500 25011KT P6SM SCT030